sensor_id;sensor_type;location;lat;lon;timestamp;temperature;humidity
23405;DHT22;11875;49.356;2.718;2022-12-24T00:01:34;11.90;99.90
23405;DHT22;11875;49.356;2.718;2022-12-24T00:03:59;11.90;99.90
23405;DHT22;11875;49.356;2.718;2022-12-24T00:06:25;11.80;99.90
23405;DHT22;11875;49.356;2.718;2022-12-24T00:08:53;11.80;99.90
23405;DHT22;11875;49.356;2.718;2022-12-24T00:11:20;11.80;99.90
23405;DHT22;11875;49.356;2.718;2022-12-24T00:13:46;11.90;99.90
23405;DHT22;11875;49.356;2.718;2022-12-24T00:16:13;11.80;99.90
23405;DHT22;11875;49.356;2.718;2022-12-24T00:18:38;11.80;99.90
23405;DHT22;11875;49.356;2.718;2022-12-24T00:21:04;11.80;99.90
23405;DHT22;11875;49.356;2.718;2022-12-24T00:23:31;11.70;99.90
23405;DHT22;11875;49.356;2.718;2022-12-24T00:25:57;11.70;99.90
23405;DHT22;11875;49.356;2.718;2022-12-24T00:28:23;11.70;99.90
23405;DHT22;11875;49.356;2.718;2022-12-24T00:30:49;11.70;99.90
23405;DHT22;11875;49.356;2.718;2022-12-24T00:33:14;11.70;99.90
23405;DHT22;11875;49.356;2.718;2022-12-24T00:35:40;11.80;99.90
23405;DHT22;11875;49.356;2.718;2022-12-24T00:38:07;11.70;99.90
23405;DHT22;11875;49.356;2.718;2022-12-24T00:40:33;11.70;99.90
23405;DHT22;11875;49.356;2.718;2022-12-24T00:42:59;11.80;99.90
23405;DHT22;11875;49.356;2.718;2022-12-24T00:45:25;11.90;99.90
23405;DHT22;11875;49.356;2.718;2022-12-24T00:47:53;11.80;99.90
23405;DHT22;11875;49.356;2.718;2022-12-24T00:50:19;11.80;99.90
23405;DHT22;11875;49.356;2.718;2022-12-24T00:52:46;11.80;99.90
23405;DHT22;11875;49.356;2.718;2022-12-24T00:55:12;11.70;99.90
23405;DHT22;11875;49.356;2.718;2022-12-24T00:57:37;11.80;99.90
23405;DHT22;11875;49.356;2.718;2022-12-24T01:00:03;11.90;99.90
23405;DHT22;11875;49.356;2.718;2022-12-24T01:02:29;11.90;99.90
23405;DHT22;11875;49.356;2.718;2022-12-24T01:04:55;12.10;99.90
23405;DHT22;11875;49.356;2.718;2022-12-24T01:07:40;12.10;99.90
23405;DHT22;11875;49.356;2.718;2022-12-24T01:10:07;12.00;99.90
23405;DHT22;11875;49.356;2.718;2022-12-24T01:12:33;11.90;99.90
23405;DHT22;11875;49.356;2.718;2022-12-24T01:14:59;11.80;99.90
23405;DHT22;11875;49.356;2.718;2022-12-24T01:17:26;11.80;99.90
23405;DHT22;11875;49.356;2.718;2022-12-24T01:19:52;11.70;99.90
23405;DHT22;11875;49.356;2.718;2022-12-24T01:22:17;11.60;99.90
23405;DHT22;11875;49.356;2.718;2022-12-24T01:24:44;11.70;99.90
23405;DHT22;11875;49.356;2.718;2022-12-24T01:27:09;11.70;99.90
23405;DHT22;11875;49.356;2.718;2022-12-24T01:29:35;11.80;99.90
23405;DHT22;11875;49.356;2.718;2022-12-24T01:32:01;11.80;99.90
23405;DHT22;11875;49.356;2.718;2022-12-24T01:34:26;11.70;99.90
23405;DHT22;11875;49.356;2.718;2022-12-24T01:36:52;11.70;99.90
23405;DHT22;11875;49.356;2.718;2022-12-24T01:39:18;11.80;99.90
23405;DHT22;11875;49.356;2.718;2022-12-24T01:41:44;11.70;99.90
23405;DHT22;11875;49.356;2.718;2022-12-24T01:44:34;11.60;99.90
23405;DHT22;11875;49.356;2.718;2022-12-24T01:49:31;11.60;99.90
23405;DHT22;11875;49.356;2.718;2022-12-24T01:52:06;11.60;99.90
23405;DHT22;11875;49.356;2.718;2022-12-24T01:54:40;11.70;99.90
23405;DHT22;11875;49.356;2.718;2022-12-24T01:57:14;11.80;99.90
23405;DHT22;11875;49.356;2.718;2022-12-24T01:59:44;11.80;99.90
23405;DHT22;11875;49.356;2.718;2022-12-24T02:02:11;11.90;99.90
23405;DHT22;11875;49.356;2.718;2022-12-24T02:04:50;12.00;99.90
23405;DHT22;11875;49.356;2.718;2022-12-24T02:07:18;12.00;99.90
23405;DHT22;11875;49.356;2.718;2022-12-24T02:09:44;11.90;99.90
23405;DHT22;11875;49.356;2.718;2022-12-24T02:12:11;11.90;99.90
23405;DHT22;11875;49.356;2.718;2022-12-24T02:14:37;11.80;99.90
23405;DHT22;11875;49.356;2.718;2022-12-24T02:17:33;11.70;99.90
23405;DHT22;11875;49.356;2.718;2022-12-24T02:28:35;11.60;99.90
23405;DHT22;11875;49.356;2.718;2022-12-24T02:31:22;11.60;99.90
23405;DHT22;11875;49.356;2.718;2022-12-24T02:33:58;11.60;99.90
23405;DHT22;11875;49.356;2.718;2022-12-24T02:36:37;11.50;99.90
23405;DHT22;11875;49.356;2.718;2022-12-24T02:39:21;11.50;99.90
23405;DHT22;11875;49.356;2.718;2022-12-24T02:41:52;11.50;99.90
23405;DHT22;11875;49.356;2.718;2022-12-24T02:44:52;11.60;99.90
23405;DHT22;11875;49.356;2.718;2022-12-24T02:47:22;11.70;99.90
23405;DHT22;11875;49.356;2.718;2022-12-24T02:49:50;11.60;99.90
23405;DHT22;11875;49.356;2.718;2022-12-24T02:52:35;11.50;99.90
23405;DHT22;11875;49.356;2.718;2022-12-24T02:55:10;11.60;99.90
23405;DHT22;11875;49.356;2.718;2022-12-24T03:01:09;11.40;99.90
23405;DHT22;11875;49.356;2.718;2022-12-24T03:09:14;11.60;99.90
23405;DHT22;11875;49.356;2.718;2022-12-24T03:11:47;11.60;99.90
23405;DHT22;11875;49.356;2.718;2022-12-24T03:14:15;11.60;99.90
23405;DHT22;11875;49.356;2.718;2022-12-24T03:16:41;11.70;99.90
23405;DHT22;11875;49.356;2.718;2022-12-24T03:19:08;11.70;99.90
23405;DHT22;11875;49.356;2.718;2022-12-24T03:21:37;11.80;99.90
23405;DHT22;11875;49.356;2.718;2022-12-24T03:24:03;11.80;99.90
23405;DHT22;11875;49.356;2.718;2022-12-24T03:26:30;11.90;99.90
23405;DHT22;11875;49.356;2.718;2022-12-24T03:28:56;11.80;99.90
23405;DHT22;11875;49.356;2.718;2022-12-24T03:31:23;11.90;99.90
23405;DHT22;11875;49.356;2.718;2022-12-24T03:33:49;11.90;99.90
23405;DHT22;11875;49.356;2.718;2022-12-24T03:36:14;12.00;99.90
23405;DHT22;11875;49.356;2.718;2022-12-24T03:38:41;12.20;99.90
23405;DHT22;11875;49.356;2.718;2022-12-24T03:41:06;12.20;99.90
23405;DHT22;11875;49.356;2.718;2022-12-24T03:43:33;12.20;99.90
23405;DHT22;11875;49.356;2.718;2022-12-24T03:46:05;12.20;99.90
23405;DHT22;11875;49.356;2.718;2022-12-24T03:48:33;12.20;99.90
23405;DHT22;11875;49.356;2.718;2022-12-24T03:51:00;12.20;99.90
23405;DHT22;11875;49.356;2.718;2022-12-24T03:53:27;12.20;99.90
23405;DHT22;11875;49.356;2.718;2022-12-24T03:55:53;12.20;99.90
23405;DHT22;11875;49.356;2.718;2022-12-24T03:58:18;12.20;99.90
23405;DHT22;11875;49.356;2.718;2022-12-24T04:00:44;12.10;99.90
23405;DHT22;11875;49.356;2.718;2022-12-24T04:03:10;12.10;99.90
23405;DHT22;11875;49.356;2.718;2022-12-24T04:05:35;12.00;99.90
23405;DHT22;11875;49.356;2.718;2022-12-24T04:08:01;12.10;99.90
23405;DHT22;11875;49.356;2.718;2022-12-24T04:10:27;12.00;99.90
23405;DHT22;11875;49.356;2.718;2022-12-24T04:12:52;12.10;99.90
23405;DHT22;11875;49.356;2.718;2022-12-24T04:15:18;12.10;99.90
23405;DHT22;11875;49.356;2.718;2022-12-24T04:17:45;12.00;99.90
23405;DHT22;11875;49.356;2.718;2022-12-24T04:20:11;11.90;99.90
23405;DHT22;11875;49.356;2.718;2022-12-24T04:22:37;11.90;99.90
23405;DHT22;11875;49.356;2.718;2022-12-24T04:25:02;11.80;99.90
23405;DHT22;11875;49.356;2.718;2022-12-24T04:27:28;11.80;99.90
23405;DHT22;11875;49.356;2.718;2022-12-24T04:29:55;11.80;99.90
23405;DHT22;11875;49.356;2.718;2022-12-24T04:32:21;11.90;99.90
23405;DHT22;11875;49.356;2.718;2022-12-24T04:34:46;11.90;99.90
23405;DHT22;11875;49.356;2.718;2022-12-24T04:37:12;12.00;99.90
23405;DHT22;11875;49.356;2.718;2022-12-24T04:39:38;12.10;99.90
23405;DHT22;11875;49.356;2.718;2022-12-24T04:42:04;12.20;99.90
23405;DHT22;11875;49.356;2.718;2022-12-24T04:44:29;12.20;99.90
23405;DHT22;11875;49.356;2.718;2022-12-24T04:46:55;12.30;99.90
23405;DHT22;11875;49.356;2.718;2022-12-24T04:49:20;12.30;99.90
23405;DHT22;11875;49.356;2.718;2022-12-24T04:51:46;12.30;99.90
23405;DHT22;11875;49.356;2.718;2022-12-24T04:54:12;12.30;99.90
23405;DHT22;11875;49.356;2.718;2022-12-24T04:56:38;12.40;99.90
23405;DHT22;11875;49.356;2.718;2022-12-24T04:59:04;12.30;99.90
23405;DHT22;11875;49.356;2.718;2022-12-24T05:01:31;12.30;99.90
23405;DHT22;11875;49.356;2.718;2022-12-24T05:03:57;12.10;99.90
23405;DHT22;11875;49.356;2.718;2022-12-24T05:06:26;11.80;99.90
23405;DHT22;11875;49.356;2.718;2022-12-24T05:08:53;11.80;99.90
23405;DHT22;11875;49.356;2.718;2022-12-24T05:11:20;11.80;99.90
23405;DHT22;11875;49.356;2.718;2022-12-24T05:13:45;11.80;99.90
23405;DHT22;11875;49.356;2.718;2022-12-24T05:16:12;11.90;99.90
23405;DHT22;11875;49.356;2.718;2022-12-24T05:18:38;11.80;99.90
23405;DHT22;11875;49.356;2.718;2022-12-24T05:21:15;11.60;99.90
23405;DHT22;11875;49.356;2.718;2022-12-24T05:23:41;11.50;99.90
23405;DHT22;11875;49.356;2.718;2022-12-24T05:29:03;11.50;99.90
23405;DHT22;11875;49.356;2.718;2022-12-24T05:31:30;11.70;99.90
23405;DHT22;11875;49.356;2.718;2022-12-24T05:33:58;11.80;99.90
23405;DHT22;11875;49.356;2.718;2022-12-24T05:36:24;11.80;99.90
23405;DHT22;11875;49.356;2.718;2022-12-24T05:38:50;11.70;99.90
23405;DHT22;11875;49.356;2.718;2022-12-24T05:41:16;11.70;99.90
23405;DHT22;11875;49.356;2.718;2022-12-24T05:43:42;11.70;99.90
23405;DHT22;11875;49.356;2.718;2022-12-24T05:46:09;11.70;99.90
23405;DHT22;11875;49.356;2.718;2022-12-24T05:48:36;11.80;99.90
23405;DHT22;11875;49.356;2.718;2022-12-24T05:51:09;11.80;99.90
23405;DHT22;11875;49.356;2.718;2022-12-24T05:53:35;11.80;99.90
23405;DHT22;11875;49.356;2.718;2022-12-24T05:56:06;11.80;99.90
23405;DHT22;11875;49.356;2.718;2022-12-24T05:58:32;11.70;99.90
23405;DHT22;11875;49.356;2.718;2022-12-24T06:00:59;11.70;99.90
23405;DHT22;11875;49.356;2.718;2022-12-24T06:03:24;11.70;99.90
23405;DHT22;11875;49.356;2.718;2022-12-24T06:06:07;11.60;99.90
23405;DHT22;11875;49.356;2.718;2022-12-24T06:08:34;11.60;99.90
23405;DHT22;11875;49.356;2.718;2022-12-24T06:11:03;11.70;99.90
23405;DHT22;11875;49.356;2.718;2022-12-24T06:13:29;11.70;99.90
23405;DHT22;11875;49.356;2.718;2022-12-24T06:16:00;11.80;99.90
23405;DHT22;11875;49.356;2.718;2022-12-24T06:18:28;11.90;99.90
23405;DHT22;11875;49.356;2.718;2022-12-24T06:20:56;12.00;99.90
23405;DHT22;11875;49.356;2.718;2022-12-24T06:23:22;12.10;99.90
23405;DHT22;11875;49.356;2.718;2022-12-24T06:25:56;12.10;99.90
23405;DHT22;11875;49.356;2.718;2022-12-24T06:28:21;11.80;99.90
23405;DHT22;11875;49.356;2.718;2022-12-24T06:30:48;11.70;99.90
23405;DHT22;11875;49.356;2.718;2022-12-24T06:33:14;11.80;99.90
23405;DHT22;11875;49.356;2.718;2022-12-24T06:35:40;11.80;99.90
23405;DHT22;11875;49.356;2.718;2022-12-24T06:38:06;11.80;99.90
23405;DHT22;11875;49.356;2.718;2022-12-24T06:40:32;11.70;99.90
23405;DHT22;11875;49.356;2.718;2022-12-24T06:42:58;11.80;99.90
23405;DHT22;11875;49.356;2.718;2022-12-24T06:45:24;11.80;99.90
23405;DHT22;11875;49.356;2.718;2022-12-24T06:47:49;11.80;99.90
23405;DHT22;11875;49.356;2.718;2022-12-24T06:50:15;11.70;99.90
23405;DHT22;11875;49.356;2.718;2022-12-24T06:52:40;11.80;99.90
23405;DHT22;11875;49.356;2.718;2022-12-24T06:55:07;12.00;99.90
23405;DHT22;11875;49.356;2.718;2022-12-24T06:57:33;12.00;99.90
23405;DHT22;11875;49.356;2.718;2022-12-24T06:59:59;12.10;99.90
23405;DHT22;11875;49.356;2.718;2022-12-24T07:02:25;12.20;99.90
23405;DHT22;11875;49.356;2.718;2022-12-24T07:04:51;12.20;99.90
23405;DHT22;11875;49.356;2.718;2022-12-24T07:07:16;12.20;99.90
23405;DHT22;11875;49.356;2.718;2022-12-24T07:09:42;12.30;99.90
23405;DHT22;11875;49.356;2.718;2022-12-24T07:12:08;12.20;99.90
23405;DHT22;11875;49.356;2.718;2022-12-24T07:14:33;12.00;99.90
23405;DHT22;11875;49.356;2.718;2022-12-24T07:16:59;12.10;99.90
23405;DHT22;11875;49.356;2.718;2022-12-24T07:19:25;12.10;99.90
23405;DHT22;11875;49.356;2.718;2022-12-24T07:21:51;12.00;99.90
23405;DHT22;11875;49.356;2.718;2022-12-24T07:24:16;12.10;99.90
23405;DHT22;11875;49.356;2.718;2022-12-24T07:26:42;12.10;99.90
23405;DHT22;11875;49.356;2.718;2022-12-24T07:29:07;12.20;99.90
23405;DHT22;11875;49.356;2.718;2022-12-24T07:31:33;12.50;99.90
23405;DHT22;11875;49.356;2.718;2022-12-24T07:33:59;12.50;99.90
23405;DHT22;11875;49.356;2.718;2022-12-24T07:36:25;12.70;99.90
23405;DHT22;11875;49.356;2.718;2022-12-24T07:38:53;12.70;99.90
23405;DHT22;11875;49.356;2.718;2022-12-24T07:41:18;12.70;99.90
23405;DHT22;11875;49.356;2.718;2022-12-24T07:43:44;12.70;99.90
23405;DHT22;11875;49.356;2.718;2022-12-24T07:46:10;12.90;99.90
23405;DHT22;11875;49.356;2.718;2022-12-24T07:48:36;12.50;99.90
23405;DHT22;11875;49.356;2.718;2022-12-24T07:51:02;12.40;99.90
23405;DHT22;11875;49.356;2.718;2022-12-24T07:53:28;12.50;99.90
23405;DHT22;11875;49.356;2.718;2022-12-24T07:55:54;12.40;99.90
23405;DHT22;11875;49.356;2.718;2022-12-24T07:58:20;12.50;99.90
23405;DHT22;11875;49.356;2.718;2022-12-24T08:00:46;12.70;99.90
23405;DHT22;11875;49.356;2.718;2022-12-24T08:03:17;12.70;99.90
23405;DHT22;11875;49.356;2.718;2022-12-24T08:05:43;12.70;99.90
23405;DHT22;11875;49.356;2.718;2022-12-24T08:08:09;12.60;99.90
23405;DHT22;11875;49.356;2.718;2022-12-24T08:10:38;12.60;99.90
23405;DHT22;11875;49.356;2.718;2022-12-24T08:13:04;12.40;99.90
23405;DHT22;11875;49.356;2.718;2022-12-24T08:15:29;12.50;99.90
23405;DHT22;11875;49.356;2.718;2022-12-24T08:17:55;12.50;99.90
23405;DHT22;11875;49.356;2.718;2022-12-24T08:20:20;12.40;99.90
23405;DHT22;11875;49.356;2.718;2022-12-24T08:22:46;12.50;99.90
23405;DHT22;11875;49.356;2.718;2022-12-24T08:25:12;12.40;99.90
23405;DHT22;11875;49.356;2.718;2022-12-24T08:27:37;12.50;99.90
23405;DHT22;11875;49.356;2.718;2022-12-24T08:30:03;12.60;99.90
23405;DHT22;11875;49.356;2.718;2022-12-24T08:32:29;12.60;99.90
23405;DHT22;11875;49.356;2.718;2022-12-24T08:34:55;12.70;99.90
23405;DHT22;11875;49.356;2.718;2022-12-24T08:37:21;12.80;99.90
23405;DHT22;11875;49.356;2.718;2022-12-24T08:39:46;12.70;99.90
23405;DHT22;11875;49.356;2.718;2022-12-24T08:42:12;12.70;99.90
23405;DHT22;11875;49.356;2.718;2022-12-24T08:44:38;12.60;99.90
23405;DHT22;11875;49.356;2.718;2022-12-24T08:47:03;12.60;99.90
23405;DHT22;11875;49.356;2.718;2022-12-24T08:49:29;12.60;99.90
23405;DHT22;11875;49.356;2.718;2022-12-24T08:51:54;12.60;99.90
23405;DHT22;11875;49.356;2.718;2022-12-24T08:54:20;12.80;99.90
23405;DHT22;11875;49.356;2.718;2022-12-24T08:56:48;13.00;99.90
23405;DHT22;11875;49.356;2.718;2022-12-24T08:59:13;13.00;99.90
23405;DHT22;11875;49.356;2.718;2022-12-24T09:01:39;13.20;99.90
23405;DHT22;11875;49.356;2.718;2022-12-24T09:04:04;13.20;99.90
23405;DHT22;11875;49.356;2.718;2022-12-24T09:06:31;13.20;99.90
23405;DHT22;11875;49.356;2.718;2022-12-24T09:08:57;13.30;99.90
23405;DHT22;11875;49.356;2.718;2022-12-24T09:11:23;13.30;99.90
23405;DHT22;11875;49.356;2.718;2022-12-24T09:13:49;13.20;99.90
23405;DHT22;11875;49.356;2.718;2022-12-24T09:16:15;13.30;99.90
23405;DHT22;11875;49.356;2.718;2022-12-24T09:18:41;13.30;99.90
23405;DHT22;11875;49.356;2.718;2022-12-24T09:21:09;13.40;99.90
23405;DHT22;11875;49.356;2.718;2022-12-24T09:23:36;13.50;99.90
23405;DHT22;11875;49.356;2.718;2022-12-24T09:26:11;13.50;99.90
23405;DHT22;11875;49.356;2.718;2022-12-24T09:28:37;13.50;99.90
23405;DHT22;11875;49.356;2.718;2022-12-24T09:31:04;13.50;99.90
23405;DHT22;11875;49.356;2.718;2022-12-24T09:33:33;13.40;99.90
23405;DHT22;11875;49.356;2.718;2022-12-24T09:36:00;13.20;99.90
23405;DHT22;11875;49.356;2.718;2022-12-24T09:38:25;13.20;99.90
23405;DHT22;11875;49.356;2.718;2022-12-24T09:40:53;13.30;99.90
23405;DHT22;11875;49.356;2.718;2022-12-24T09:43:23;13.30;99.90
23405;DHT22;11875;49.356;2.718;2022-12-24T09:48:30;13.00;99.90
23405;DHT22;11875;49.356;2.718;2022-12-24T09:51:09;12.90;99.90
23405;DHT22;11875;49.356;2.718;2022-12-24T09:53:49;12.90;99.90
23405;DHT22;11875;49.356;2.718;2022-12-24T09:56:26;12.90;99.90
23405;DHT22;11875;49.356;2.718;2022-12-24T10:01:18;12.60;99.90
23405;DHT22;11875;49.356;2.718;2022-12-24T10:03:45;12.70;99.90
23405;DHT22;11875;49.356;2.718;2022-12-24T10:06:23;12.70;99.90
23405;DHT22;11875;49.356;2.718;2022-12-24T10:11:41;12.90;99.90
23405;DHT22;11875;49.356;2.718;2022-12-24T10:20:29;13.20;99.90
23405;DHT22;11875;49.356;2.718;2022-12-24T10:23:16;13.10;99.90
23405;DHT22;11875;49.356;2.718;2022-12-24T10:28:47;13.00;99.90
23405;DHT22;11875;49.356;2.718;2022-12-24T10:31:18;12.80;99.90
23405;DHT22;11875;49.356;2.718;2022-12-24T10:33:49;12.80;99.90
23405;DHT22;11875;49.356;2.718;2022-12-24T10:36:21;12.90;99.90
23405;DHT22;11875;49.356;2.718;2022-12-24T10:38:49;12.80;99.90
23405;DHT22;11875;49.356;2.718;2022-12-24T10:41:15;12.90;99.90
23405;DHT22;11875;49.356;2.718;2022-12-24T10:43:42;13.00;99.90
23405;DHT22;11875;49.356;2.718;2022-12-24T10:46:16;13.00;99.90
23405;DHT22;11875;49.356;2.718;2022-12-24T10:54:15;13.00;99.90
23405;DHT22;11875;49.356;2.718;2022-12-24T10:56:43;13.00;99.90
23405;DHT22;11875;49.356;2.718;2022-12-24T10:59:49;13.10;99.90
23405;DHT22;11875;49.356;2.718;2022-12-24T11:02:30;13.10;99.90
23405;DHT22;11875;49.356;2.718;2022-12-24T11:04:56;13.10;99.90
23405;DHT22;11875;49.356;2.718;2022-12-24T11:07:27;13.10;99.90
23405;DHT22;11875;49.356;2.718;2022-12-24T11:09:59;13.10;99.90
23405;DHT22;11875;49.356;2.718;2022-12-24T11:12:29;13.10;99.90
23405;DHT22;11875;49.356;2.718;2022-12-24T11:17:30;13.10;99.90
23405;DHT22;11875;49.356;2.718;2022-12-24T11:19:56;13.10;99.90
23405;DHT22;11875;49.356;2.718;2022-12-24T11:22:28;13.00;99.90
23405;DHT22;11875;49.356;2.718;2022-12-24T11:27:42;12.90;99.90
23405;DHT22;11875;49.356;2.718;2022-12-24T11:32:42;12.90;99.90
23405;DHT22;11875;49.356;2.718;2022-12-24T11:35:15;12.90;99.90
23405;DHT22;11875;49.356;2.718;2022-12-24T11:37:41;13.00;99.90
23405;DHT22;11875;49.356;2.718;2022-12-24T11:40:22;13.00;99.90
23405;DHT22;11875;49.356;2.718;2022-12-24T11:42:48;13.00;99.90
23405;DHT22;11875;49.356;2.718;2022-12-24T11:45:23;12.90;99.90
23405;DHT22;11875;49.356;2.718;2022-12-24T11:47:50;12.90;99.90
23405;DHT22;11875;49.356;2.718;2022-12-24T11:50:34;13.00;99.90
23405;DHT22;11875;49.356;2.718;2022-12-24T11:55:45;13.20;99.90
23405;DHT22;11875;49.356;2.718;2022-12-24T12:01:25;13.20;99.90
23405;DHT22;11875;49.356;2.718;2022-12-24T12:03:57;13.20;99.90
23405;DHT22;11875;49.356;2.718;2022-12-24T12:09:04;13.10;99.90
23405;DHT22;11875;49.356;2.718;2022-12-24T12:11:32;13.20;99.90
23405;DHT22;11875;49.356;2.718;2022-12-24T12:14:00;13.20;99.90
23405;DHT22;11875;49.356;2.718;2022-12-24T12:19:24;13.30;99.90
23405;DHT22;11875;49.356;2.718;2022-12-24T12:21:51;13.30;99.90
23405;DHT22;11875;49.356;2.718;2022-12-24T12:24:25;13.40;99.90
23405;DHT22;11875;49.356;2.718;2022-12-24T12:27:04;13.20;99.90
23405;DHT22;11875;49.356;2.718;2022-12-24T12:29:36;13.20;99.90
23405;DHT22;11875;49.356;2.718;2022-12-24T12:32:09;13.10;99.90
23405;DHT22;11875;49.356;2.718;2022-12-24T12:34:40;13.10;99.90
23405;DHT22;11875;49.356;2.718;2022-12-24T12:39:35;13.30;99.90
23405;DHT22;11875;49.356;2.718;2022-12-24T12:49:40;13.10;99.90
23405;DHT22;11875;49.356;2.718;2022-12-24T12:52:24;13.10;99.90
23405;DHT22;11875;49.356;2.718;2022-12-24T12:57:48;13.10;99.90
23405;DHT22;11875;49.356;2.718;2022-12-24T13:00:16;13.20;99.90
23405;DHT22;11875;49.356;2.718;2022-12-24T13:18:58;13.20;99.90
23405;DHT22;11875;49.356;2.718;2022-12-24T13:21:28;13.30;99.90
23405;DHT22;11875;49.356;2.718;2022-12-24T13:24:25;13.30;99.90
23405;DHT22;11875;49.356;2.718;2022-12-24T13:27:44;13.50;99.90
23405;DHT22;11875;49.356;2.718;2022-12-24T13:32:51;13.60;99.90
23405;DHT22;11875;49.356;2.718;2022-12-24T13:37:47;13.50;99.90
23405;DHT22;11875;49.356;2.718;2022-12-24T13:40:24;13.40;99.90
23405;DHT22;11875;49.356;2.718;2022-12-24T13:47:59;13.50;99.90
23405;DHT22;11875;49.356;2.718;2022-12-24T13:50:35;13.50;99.90
23405;DHT22;11875;49.356;2.718;2022-12-24T13:53:03;13.60;99.90
23405;DHT22;11875;49.356;2.718;2022-12-24T13:55:29;13.70;99.90
23405;DHT22;11875;49.356;2.718;2022-12-24T13:58:01;13.60;99.90
23405;DHT22;11875;49.356;2.718;2022-12-24T14:00:39;13.70;99.90
23405;DHT22;11875;49.356;2.718;2022-12-24T14:08:24;13.70;99.90
23405;DHT22;11875;49.356;2.718;2022-12-24T14:18:38;13.80;99.90
23405;DHT22;11875;49.356;2.718;2022-12-24T14:21:06;13.80;99.90
23405;DHT22;11875;49.356;2.718;2022-12-24T14:26:13;13.80;99.90
23405;DHT22;11875;49.356;2.718;2022-12-24T14:28:44;13.90;99.90
23405;DHT22;11875;49.356;2.718;2022-12-24T14:31:14;13.90;99.90
23405;DHT22;11875;49.356;2.718;2022-12-24T14:33:40;14.00;99.90
23405;DHT22;11875;49.356;2.718;2022-12-24T14:36:06;14.00;99.90
23405;DHT22;11875;49.356;2.718;2022-12-24T14:38:32;13.90;99.90
23405;DHT22;11875;49.356;2.718;2022-12-24T14:41:15;13.90;99.90
23405;DHT22;11875;49.356;2.718;2022-12-24T14:46:56;14.00;99.90
23405;DHT22;11875;49.356;2.718;2022-12-24T14:54:50;13.80;99.90
23405;DHT22;11875;49.356;2.718;2022-12-24T14:57:23;13.70;99.90
23405;DHT22;11875;49.356;2.718;2022-12-24T14:59:59;13.70;99.90
23405;DHT22;11875;49.356;2.718;2022-12-24T15:02:45;13.60;99.90
23405;DHT22;11875;49.356;2.718;2022-12-24T15:05:16;13.50;99.90
23405;DHT22;11875;49.356;2.718;2022-12-24T15:07:47;13.60;99.90
23405;DHT22;11875;49.356;2.718;2022-12-24T15:10:34;13.60;99.90
23405;DHT22;11875;49.356;2.718;2022-12-24T15:13:06;13.70;99.90
23405;DHT22;11875;49.356;2.718;2022-12-24T15:15:34;13.80;99.90
23405;DHT22;11875;49.356;2.718;2022-12-24T15:18:01;13.60;99.90
23405;DHT22;11875;49.356;2.718;2022-12-24T15:20:28;13.60;99.90
23405;DHT22;11875;49.356;2.718;2022-12-24T15:22:57;13.60;99.90
23405;DHT22;11875;49.356;2.718;2022-12-24T15:25:31;13.50;99.90
23405;DHT22;11875;49.356;2.718;2022-12-24T15:27:58;13.50;99.90
23405;DHT22;11875;49.356;2.718;2022-12-24T15:30:26;13.50;99.90
23405;DHT22;11875;49.356;2.718;2022-12-24T15:32:53;13.50;99.90
23405;DHT22;11875;49.356;2.718;2022-12-24T15:35:48;13.50;99.90
23405;DHT22;11875;49.356;2.718;2022-12-24T15:38:33;13.50;99.90
23405;DHT22;11875;49.356;2.718;2022-12-24T15:41:02;13.50;99.90
23405;DHT22;11875;49.356;2.718;2022-12-24T15:43:31;13.60;99.90
23405;DHT22;11875;49.356;2.718;2022-12-24T15:45:57;13.60;99.90
23405;DHT22;11875;49.356;2.718;2022-12-24T15:48:25;13.70;99.90
23405;DHT22;11875;49.356;2.718;2022-12-24T15:50:53;13.70;99.90
23405;DHT22;11875;49.356;2.718;2022-12-24T15:53:33;13.80;99.90
23405;DHT22;11875;49.356;2.718;2022-12-24T15:56:12;13.80;99.90
23405;DHT22;11875;49.356;2.718;2022-12-24T15:58:40;13.70;99.90
23405;DHT22;11875;49.356;2.718;2022-12-24T16:03:39;13.40;99.90
23405;DHT22;11875;49.356;2.718;2022-12-24T16:06:06;13.40;99.90
23405;DHT22;11875;49.356;2.718;2022-12-24T16:08:36;13.50;99.90
23405;DHT22;11875;49.356;2.718;2022-12-24T16:11:21;13.50;99.90
23405;DHT22;11875;49.356;2.718;2022-12-24T16:16:32;13.30;99.90
23405;DHT22;11875;49.356;2.718;2022-12-24T16:18:59;13.20;99.90
23405;DHT22;11875;49.356;2.718;2022-12-24T16:23:55;13.30;99.90
23405;DHT22;11875;49.356;2.718;2022-12-24T16:26:21;13.40;99.90
23405;DHT22;11875;49.356;2.718;2022-12-24T16:28:47;13.30;99.90
23405;DHT22;11875;49.356;2.718;2022-12-24T16:31:18;13.30;99.90
23405;DHT22;11875;49.356;2.718;2022-12-24T16:33:52;13.30;99.90
23405;DHT22;11875;49.356;2.718;2022-12-24T16:36:18;13.40;99.90
23405;DHT22;11875;49.356;2.718;2022-12-24T16:38:44;13.50;99.90
23405;DHT22;11875;49.356;2.718;2022-12-24T16:41:28;13.50;99.90
23405;DHT22;11875;49.356;2.718;2022-12-24T16:43:54;13.50;99.90
23405;DHT22;11875;49.356;2.718;2022-12-24T16:46:19;13.40;99.90
23405;DHT22;11875;49.356;2.718;2022-12-24T16:48:46;13.30;99.90
23405;DHT22;11875;49.356;2.718;2022-12-24T16:51:12;13.20;99.90
23405;DHT22;11875;49.356;2.718;2022-12-24T16:53:41;13.10;99.90
23405;DHT22;11875;49.356;2.718;2022-12-24T16:56:08;13.20;99.90
23405;DHT22;11875;49.356;2.718;2022-12-24T16:58:34;13.10;99.90
23405;DHT22;11875;49.356;2.718;2022-12-24T17:01:05;13.00;99.90
23405;DHT22;11875;49.356;2.718;2022-12-24T17:03:31;12.80;99.90
23405;DHT22;11875;49.356;2.718;2022-12-24T17:05:56;12.70;99.90
23405;DHT22;11875;49.356;2.718;2022-12-24T17:08:22;12.70;99.90
23405;DHT22;11875;49.356;2.718;2022-12-24T17:10:51;12.70;99.90
23405;DHT22;11875;49.356;2.718;2022-12-24T17:13:16;12.60;99.90
23405;DHT22;11875;49.356;2.718;2022-12-24T17:15:42;12.70;99.90
23405;DHT22;11875;49.356;2.718;2022-12-24T17:18:08;12.80;99.90
23405;DHT22;11875;49.356;2.718;2022-12-24T17:20:33;12.70;99.90
23405;DHT22;11875;49.356;2.718;2022-12-24T17:22:59;12.50;99.90
23405;DHT22;11875;49.356;2.718;2022-12-24T17:25:25;12.40;99.90
23405;DHT22;11875;49.356;2.718;2022-12-24T17:27:50;12.40;99.90
23405;DHT22;11875;49.356;2.718;2022-12-24T17:30:16;12.40;99.90
23405;DHT22;11875;49.356;2.718;2022-12-24T17:32:42;12.30;99.90
23405;DHT22;11875;49.356;2.718;2022-12-24T17:35:09;12.30;99.90
23405;DHT22;11875;49.356;2.718;2022-12-24T17:37:35;12.30;99.90
23405;DHT22;11875;49.356;2.718;2022-12-24T17:40:00;12.30;99.90
23405;DHT22;11875;49.356;2.718;2022-12-24T17:42:26;12.20;99.90
23405;DHT22;11875;49.356;2.718;2022-12-24T17:44:53;12.30;99.90
23405;DHT22;11875;49.356;2.718;2022-12-24T17:47:18;12.40;99.90
23405;DHT22;11875;49.356;2.718;2022-12-24T17:49:44;12.30;99.90
23405;DHT22;11875;49.356;2.718;2022-12-24T17:52:09;12.10;99.90
23405;DHT22;11875;49.356;2.718;2022-12-24T17:54:36;12.00;99.90
23405;DHT22;11875;49.356;2.718;2022-12-24T17:57:02;11.90;99.90